createdAt,value
2018-07-15T00:01:30.982Z,11.88
2018-07-15T00:04:00.076Z,11.68
2018-07-15T00:06:29.260Z,11.35
2018-07-15T00:08:58.359Z,12.73
2018-07-15T00:11:27.454Z,13.98
2018-07-15T00:13:57.212Z,11.97
2018-07-15T00:16:25.772Z,13.45
2018-07-15T00:18:55.359Z,12.53
2018-07-15T00:21:24.389Z,11.03
2018-07-15T00:23:53.563Z,12.20
2018-07-15T00:26:23.835Z,11.97
2018-07-15T00:28:53.597Z,10.30
2018-07-15T00:31:22.718Z,12.23
2018-07-15T00:33:51.984Z,12.68
2018-07-15T00:36:21.041Z,11.80
2018-07-15T00:38:50.160Z,11.63
2018-07-15T00:41:19.346Z,11.73
2018-07-15T00:43:48.516Z,11.57
2018-07-15T00:46:17.393Z,14.50
2018-07-15T00:48:46.251Z,10.63
2018-07-15T00:51:15.195Z,10.98
2018-07-15T00:53:44.058Z,11.83
2018-07-15T00:56:12.948Z,10.90
2018-07-15T00:58:41.814Z,13.38
2018-07-15T01:01:10.923Z,11.38
2018-07-15T01:03:40.039Z,13.00
2018-07-15T01:06:09.336Z,11.55
2018-07-15T01:08:38.535Z,11.20
2018-07-15T01:11:08.276Z,11.03
2018-07-15T01:13:37.454Z,13.05
2018-07-15T01:16:06.637Z,11.00
2018-07-15T01:18:35.831Z,12.82
2018-07-15T01:21:05.005Z,15.83
2018-07-15T01:23:34.633Z,13.18
2018-07-15T01:26:03.798Z,11.97
2018-07-15T01:28:33.234Z,12.93
2018-07-15T01:31:02.517Z,12.75
2018-07-15T01:33:31.613Z,13.45
2018-07-15T01:36:00.904Z,13.93
2018-07-15T01:38:30.101Z,12.63
2018-07-15T01:40:59.178Z,13.35
2018-07-15T01:43:29.010Z,12.73
2018-07-15T01:45:58.117Z,12.45
2018-07-15T01:48:27.301Z,13.35
2018-07-15T01:50:56.388Z,12.90
2018-07-15T01:53:25.893Z,14.30
2018-07-15T01:55:54.988Z,13.72
2018-07-15T01:58:24.028Z,13.53
2018-07-15T02:00:52.932Z,13.75
2018-07-15T02:03:21.757Z,14.93
2018-07-15T02:05:50.611Z,13.68
2018-07-15T02:08:19.484Z,16.45
2018-07-15T02:10:48.383Z,14.45
2018-07-15T02:13:17.280Z,15.23
2018-07-15T02:15:46.211Z,12.90
2018-07-15T02:18:15.399Z,15.98
2018-07-15T02:20:44.561Z,14.55
2018-07-15T02:23:13.593Z,14.33
2018-07-15T02:25:42.896Z,15.35
2018-07-15T02:28:12.613Z,16.00
2018-07-15T02:30:41.789Z,14.45
2018-07-15T02:33:11.260Z,14.20
2018-07-15T02:35:40.575Z,15.08
2018-07-15T02:38:09.544Z,15.90
2018-07-15T02:40:38.391Z,14.80
2018-07-15T02:43:07.736Z,15.72
2018-07-15T02:45:36.829Z,15.72
2018-07-15T02:48:06.661Z,16.35
2018-07-15T02:50:36.437Z,15.95
2018-07-15T02:53:06.278Z,15.83
2018-07-15T02:55:35.344Z,18.23
2018-07-15T02:58:04.365Z,15.98
2018-07-15T03:00:33.567Z,15.80
2018-07-15T03:03:03.010Z,17.87
2018-07-15T03:05:32.149Z,18.20
2018-07-15T03:08:01.794Z,17.42
2018-07-15T03:10:31.642Z,15.45
2018-07-15T03:13:00.861Z,17.65
2018-07-15T03:15:29.742Z,20.68
2018-07-15T03:17:58.611Z,18.95
2018-07-15T03:20:27.442Z,20.37
2018-07-15T03:22:56.346Z,18.05
2018-07-15T03:25:25.241Z,17.23
2018-07-15T03:27:54.109Z,17.30
2018-07-15T03:30:23.394Z,16.32
2018-07-15T03:32:52.869Z,20.62
2018-07-15T03:35:23.112Z,15.40
2018-07-15T03:37:52.337Z,16.00
2018-07-15T03:40:21.525Z,14.40
2018-07-15T03:42:50.669Z,16.82
2018-07-15T03:45:19.791Z,16.32
2018-07-15T03:47:49.735Z,16.37
2018-07-15T03:50:18.854Z,18.70
2018-07-15T03:52:48.600Z,13.25
2018-07-15T03:55:17.493Z,13.25
2018-07-15T03:57:46.588Z,12.45
2018-07-15T04:00:15.685Z,12.43
2018-07-15T04:02:44.872Z,12.05
2018-07-15T04:05:13.972Z,11.80
2018-07-15T04:07:43.657Z,13.20
2018-07-15T04:10:13.292Z,11.88
2018-07-15T04:12:42.471Z,11.83
2018-07-15T04:15:13.720Z,10.32
2018-07-15T04:17:42.743Z,10.63
2018-07-15T04:20:11.911Z,11.85
2018-07-15T04:22:40.964Z,11.63
2018-07-15T04:25:10.041Z,9.45
2018-07-15T04:27:38.888Z,9.70
2018-07-15T04:30:07.935Z,8.65
2018-07-15T04:32:36.790Z,9.43
2018-07-15T04:35:06.024Z,8.75
2018-07-15T04:37:35.137Z,8.90
2018-07-15T04:40:03.987Z,9.30
2018-07-15T04:42:32.840Z,8.65
2018-07-15T04:45:01.929Z,8.68
2018-07-15T04:47:31.014Z,8.65
2018-07-15T04:49:59.993Z,8.45
2018-07-15T04:52:29.150Z,9.50
2018-07-15T04:54:58.209Z,8.68
2018-07-15T04:57:27.932Z,9.03
2018-07-15T04:59:57.429Z,9.65
2018-07-15T05:02:27.345Z,10.78
2018-07-15T05:04:56.504Z,10.10
2018-07-15T05:07:25.988Z,13.88
2018-07-15T05:09:55.832Z,10.43
2018-07-15T05:12:25.038Z,9.20
2018-07-15T05:14:54.201Z,10.15
2018-07-15T05:17:23.261Z,9.30
2018-07-15T05:19:52.323Z,9.83
2018-07-15T05:22:21.453Z,11.28
2018-07-15T05:24:50.681Z,8.28
2018-07-15T05:27:19.819Z,9.00
2018-07-15T05:29:48.590Z,7.67
2018-07-15T05:32:17.791Z,9.43
2018-07-15T05:34:46.634Z,7.62
2018-07-15T05:37:15.551Z,7.80
2018-07-15T05:39:44.840Z,7.95
2018-07-15T05:42:13.730Z,6.15
2018-07-15T05:44:42.584Z,5.70
2018-07-15T05:47:11.530Z,5.60
2018-07-15T05:49:40.650Z,5.58
2018-07-15T05:52:09.524Z,6.55
2018-07-15T05:54:38.382Z,5.00
2018-07-15T05:57:07.340Z,4.62
2018-07-15T05:59:36.381Z,5.08
2018-07-15T06:02:05.368Z,5.35
2018-07-15T06:04:34.361Z,4.75
2018-07-15T06:07:03.452Z,5.10
2018-07-15T06:09:32.340Z,4.55
2018-07-15T06:12:01.334Z,3.87
2018-07-15T06:14:30.492Z,3.80
2018-07-15T06:16:59.601Z,3.57
2018-07-15T06:19:29.190Z,4.80
2018-07-15T06:21:58.244Z,5.03
2018-07-15T06:24:27.391Z,3.50
2018-07-15T06:26:56.550Z,4.03
2018-07-15T06:29:25.803Z,4.30
2018-07-15T06:31:55.090Z,3.93
2018-07-15T06:34:24.301Z,4.27
2018-07-15T06:36:53.286Z,4.53
2018-07-15T06:39:22.748Z,3.80
2018-07-15T06:41:51.845Z,4.10
2018-07-15T06:44:21.529Z,4.13
2018-07-15T06:46:50.648Z,4.00
2018-07-15T06:49:19.940Z,4.30
2018-07-15T06:51:48.942Z,3.37
2018-07-15T06:54:18.299Z,3.73
2018-07-15T06:56:48.045Z,3.63
2018-07-15T06:59:16.889Z,4.30
2018-07-15T07:01:45.718Z,3.87
2018-07-15T07:04:14.584Z,3.40
2018-07-15T07:06:43.502Z,3.70
2018-07-15T07:09:12.424Z,3.57
2018-07-15T07:11:41.305Z,3.50
2018-07-15T07:14:10.463Z,3.43
2018-07-15T07:16:39.540Z,3.07
2018-07-15T07:19:08.547Z,4.70
2018-07-15T07:21:37.575Z,2.67
2018-07-15T07:24:06.699Z,3.33
2018-07-15T07:26:36.306Z,3.27
2018-07-15T07:29:05.443Z,2.90
2018-07-15T07:31:34.316Z,4.03
2018-07-15T07:34:04.096Z,3.07
2018-07-15T07:36:33.241Z,3.67
2018-07-15T07:39:02.425Z,3.20
2018-07-15T07:41:31.517Z,3.30
2018-07-15T07:44:00.576Z,3.80
2018-07-15T07:46:29.704Z,4.03
2018-07-15T07:48:58.716Z,2.80
2018-07-15T07:51:27.872Z,2.50
2018-07-15T07:53:56.945Z,3.73
2018-07-15T07:56:26.039Z,4.50
2018-07-15T07:58:55.133Z,2.60
2018-07-15T08:01:24.290Z,3.10
2018-07-15T08:03:54.164Z,3.47
2018-07-15T08:06:23.297Z,3.40
2018-07-15T08:08:52.429Z,2.40
2018-07-15T08:11:21.173Z,2.20
2018-07-15T08:13:50.644Z,2.70
2018-07-15T08:16:19.470Z,2.97
2018-07-15T08:18:48.360Z,2.90
2018-07-15T08:21:17.216Z,4.57
2018-07-15T08:23:46.168Z,1.90
2018-07-15T08:26:14.994Z,2.60
2018-07-15T08:28:44.143Z,2.70
2018-07-15T08:31:18.610Z,2.80
2018-07-15T08:33:47.634Z,3.13
2018-07-15T08:36:16.784Z,6.33
2018-07-15T08:38:45.939Z,3.13
2018-07-15T08:41:15.024Z,2.70
2018-07-15T08:43:44.756Z,2.53
2018-07-15T08:46:14.579Z,2.40
2018-07-15T08:48:43.637Z,2.53
2018-07-15T08:51:12.368Z,2.90
2018-07-15T08:53:41.561Z,2.83
2018-07-15T08:56:11.871Z,2.97
2018-07-15T08:58:41.179Z,3.27
2018-07-15T09:01:10.194Z,2.33
2018-07-15T09:03:39.447Z,2.80
2018-07-15T09:06:08.485Z,4.70
2018-07-15T09:08:38.395Z,2.67
2018-07-15T09:11:07.538Z,2.77
2018-07-15T09:13:36.581Z,2.93
2018-07-15T09:16:05.621Z,2.23
2018-07-15T09:18:34.727Z,3.90
2018-07-15T09:21:03.733Z,2.00
2018-07-15T09:23:33.063Z,3.87
2018-07-15T09:26:02.132Z,2.63
2018-07-15T09:28:30.976Z,3.77
2018-07-15T09:30:59.860Z,3.97
2018-07-15T09:33:28.725Z,2.27
2018-07-15T09:35:57.682Z,2.70
2018-07-15T09:38:26.571Z,2.67
2018-07-15T09:40:55.416Z,3.77
2018-07-15T09:43:24.632Z,2.80
2018-07-15T09:45:54.278Z,2.77
2018-07-15T09:48:23.442Z,2.77
2018-07-15T09:50:52.872Z,3.02
2018-07-15T09:53:23.398Z,2.47
2018-07-15T09:55:52.517Z,2.25
2018-07-15T09:58:22.046Z,2.47
2018-07-15T10:00:56.585Z,2.05
2018-07-15T10:03:27.534Z,2.35
2018-07-15T10:05:56.730Z,3.77
2018-07-15T10:08:26.110Z,2.47
2018-07-15T10:10:55.214Z,4.05
2018-07-15T10:13:24.336Z,2.40
2018-07-15T10:15:53.416Z,1.95
2018-07-15T10:18:22.691Z,2.60
2018-07-15T10:20:51.684Z,2.80
2018-07-15T10:23:20.771Z,2.47
2018-07-15T10:25:51.302Z,2.37
2018-07-15T10:28:20.327Z,2.00
2018-07-15T10:30:49.489Z,2.17
2018-07-15T10:33:18.352Z,2.95
2018-07-15T10:35:47.470Z,2.95
2018-07-15T10:38:16.904Z,2.30
2018-07-15T10:40:45.820Z,2.22
2018-07-15T10:43:14.705Z,2.75
2018-07-15T10:45:43.936Z,1.95
2018-07-15T10:48:12.777Z,2.80
2018-07-15T10:50:41.702Z,2.45
2018-07-15T10:53:10.592Z,3.12
2018-07-15T10:55:39.473Z,2.40
2018-07-15T10:58:08.370Z,3.27
2018-07-15T11:00:38.282Z,3.52
2018-07-15T11:03:07.196Z,3.72
2018-07-15T11:05:36.417Z,4.92
2018-07-15T11:08:05.676Z,2.80
2018-07-15T11:10:34.734Z,4.17
2018-07-15T11:13:03.601Z,3.30
2018-07-15T11:15:32.435Z,2.80
2018-07-15T11:18:01.367Z,2.40
2018-07-15T11:20:31.253Z,2.60
2018-07-15T11:23:00.332Z,3.08
2018-07-15T11:25:29.392Z,4.47
2018-07-15T11:27:58.320Z,2.98
2018-07-15T11:30:27.182Z,3.27
2018-07-15T11:32:56.234Z,3.47
2018-07-15T11:35:25.385Z,5.42
2018-07-15T11:37:54.629Z,3.25
2018-07-15T11:40:23.820Z,2.90
2018-07-15T11:42:52.947Z,3.10
2018-07-15T11:45:21.808Z,2.75
2018-07-15T11:47:51.057Z,4.75
2018-07-15T11:50:19.937Z,2.47
2018-07-15T11:52:48.792Z,3.67
2018-07-15T11:55:17.970Z,3.10
2018-07-15T11:57:47.003Z,3.15
2018-07-15T12:00:15.896Z,2.77
2018-07-15T12:02:44.808Z,2.70
2018-07-15T12:05:13.665Z,2.72
2018-07-15T12:07:42.589Z,4.28
2018-07-15T12:10:11.453Z,3.50
2018-07-15T12:12:40.428Z,3.10
2018-07-15T12:15:09.294Z,3.08
2018-07-15T12:17:38.121Z,2.60
2018-07-15T12:20:07.259Z,3.17
2018-07-15T12:22:36.139Z,3.90
2018-07-15T12:25:05.040Z,4.17
2018-07-15T12:27:34.300Z,3.20
2018-07-15T12:30:03.533Z,3.35
2018-07-15T12:32:33.205Z,4.67
2018-07-15T12:35:02.102Z,2.55
2018-07-15T12:37:30.972Z,3.05
2018-07-15T12:39:59.871Z,3.02
2018-07-15T12:42:28.893Z,2.40
2018-07-15T12:44:58.013Z,3.10
2018-07-15T12:47:26.985Z,4.40
2018-07-15T12:49:55.966Z,3.60
2018-07-15T12:52:25.724Z,2.60
2018-07-15T12:54:54.589Z,2.47
2018-07-15T12:57:23.543Z,2.35
2018-07-15T12:59:52.787Z,2.30
2018-07-15T13:02:21.708Z,2.87
2018-07-15T13:04:50.612Z,4.15
2018-07-15T13:07:19.650Z,4.08
2018-07-15T13:09:48.611Z,5.55
2018-07-15T13:12:17.477Z,4.35
2018-07-15T13:14:46.490Z,2.35
2018-07-15T13:17:15.687Z,3.37
2018-07-15T13:19:44.676Z,5.78
2018-07-15T13:22:13.568Z,2.37
2018-07-15T13:24:42.556Z,4.00
2018-07-15T13:27:11.724Z,3.12
2018-07-15T13:29:40.902Z,3.47
2018-07-15T13:32:09.982Z,2.40
2018-07-15T13:34:39.116Z,6.10
2018-07-15T13:37:08.269Z,2.87
2018-07-15T13:39:37.100Z,3.15
2018-07-15T13:42:06.398Z,2.52
2018-07-15T13:44:35.279Z,2.40
2018-07-15T13:47:04.388Z,4.37
2018-07-15T13:49:33.283Z,3.77
2018-07-15T13:52:02.177Z,2.50
2018-07-15T13:54:31.086Z,2.22
2018-07-15T13:57:00.090Z,2.22
2018-07-15T13:59:29.108Z,2.72
2018-07-15T14:01:58.273Z,3.87
2018-07-15T14:04:27.325Z,2.40
2018-07-15T14:06:56.404Z,3.40
2018-07-15T14:09:25.356Z,2.45
2018-07-15T14:11:54.441Z,2.85
2018-07-15T14:14:23.655Z,2.77
2018-07-15T14:16:52.541Z,3.00
2018-07-15T14:19:22.730Z,3.15
2018-07-15T14:21:52.024Z,4.10
2018-07-15T14:24:21.126Z,4.78
2018-07-15T14:26:50.109Z,5.00
2018-07-15T14:29:19.020Z,5.15
2018-07-15T14:31:48.055Z,4.70
2018-07-15T14:34:16.898Z,4.83
2018-07-15T14:36:45.781Z,4.10
2018-07-15T14:39:14.624Z,4.92
2018-07-15T14:41:43.523Z,2.80
2018-07-15T14:44:12.368Z,3.45
2018-07-15T14:46:42.253Z,2.62
2018-07-15T14:49:11.398Z,3.27
2018-07-15T14:51:40.262Z,1.62
2018-07-15T14:54:09.308Z,2.55
2018-07-15T14:56:38.502Z,2.22
2018-07-15T14:59:07.678Z,2.33
2018-07-15T15:01:36.903Z,2.45
2018-07-15T15:04:06.184Z,2.70
2018-07-15T15:06:35.380Z,2.92
2018-07-15T15:09:05.116Z,2.65
2018-07-15T15:11:34.272Z,3.17
2018-07-15T15:14:03.504Z,1.85
2018-07-15T15:16:32.024Z,1.65
2018-07-15T15:19:00.945Z,2.30
2018-07-15T15:21:29.841Z,1.80
2018-07-15T15:23:58.715Z,1.50
2018-07-15T15:26:27.805Z,2.25
2018-07-15T15:28:56.903Z,2.02
2018-07-15T15:31:26.060Z,1.50
2018-07-15T15:33:55.187Z,1.32
2018-07-15T15:36:24.081Z,2.42
2018-07-15T15:38:52.996Z,3.10
2018-07-15T15:41:22.363Z,2.35
2018-07-15T15:43:51.247Z,3.62
2018-07-15T15:46:20.090Z,2.52
2018-07-15T15:48:49.029Z,1.67
2018-07-15T15:51:17.912Z,3.85
2018-07-15T15:53:46.839Z,2.00
2018-07-15T15:56:16.565Z,2.00
2018-07-15T15:58:45.499Z,3.00
2018-07-15T16:01:14.685Z,1.92
2018-07-15T16:03:43.617Z,1.85
2018-07-15T16:06:12.531Z,2.77
2018-07-15T16:08:41.484Z,3.15
2018-07-15T16:11:10.560Z,1.72
2018-07-15T16:13:39.468Z,2.62
2018-07-15T16:16:08.735Z,2.77
2018-07-15T16:18:37.939Z,3.08
2018-07-15T16:21:06.829Z,2.62
2018-07-15T16:23:36.086Z,3.20
2018-07-15T16:26:05.193Z,1.87
2018-07-15T16:28:34.109Z,1.98
2018-07-15T16:31:03.009Z,1.40
2018-07-15T16:33:32.048Z,3.02
2018-07-15T16:36:01.324Z,2.30
2018-07-15T16:38:30.294Z,2.45
2018-07-15T16:40:59.181Z,2.37
2018-07-15T16:43:28.170Z,2.30
2018-07-15T16:45:57.527Z,1.65
2018-07-15T16:48:26.733Z,1.47
2018-07-15T16:50:55.841Z,2.52
2018-07-15T16:53:24.964Z,2.50
2018-07-15T16:55:54.126Z,2.35
2018-07-15T16:58:23.019Z,1.70
2018-07-15T17:00:51.909Z,1.60
2018-07-15T17:03:20.793Z,2.15
2018-07-15T17:05:49.696Z,1.60
2018-07-15T17:08:18.628Z,1.70
2018-07-15T17:10:47.480Z,3.72
2018-07-15T17:13:16.548Z,1.98
2018-07-15T17:15:45.691Z,2.08
2018-07-15T17:18:14.572Z,1.98
2018-07-15T17:20:43.661Z,2.95
2018-07-15T17:23:12.555Z,1.82
2018-07-15T17:25:41.647Z,3.22
2018-07-15T17:28:10.753Z,2.20
2018-07-15T17:30:39.970Z,2.47
2018-07-15T17:33:09.264Z,2.35
2018-07-15T17:35:38.145Z,1.52
2018-07-15T17:38:07.042Z,1.67
2018-07-15T17:40:36.242Z,3.30
2018-07-15T17:43:05.425Z,2.02
2018-07-15T17:45:34.328Z,2.05
2018-07-15T17:48:03.223Z,2.83
2018-07-15T17:50:32.501Z,3.98
2018-07-15T17:53:01.628Z,2.70
2018-07-15T17:55:30.756Z,1.85
2018-07-15T17:57:59.917Z,4.15
2018-07-15T18:00:29.083Z,2.02
2018-07-15T18:02:58.069Z,3.52
2018-07-15T18:05:27.038Z,1.60
2018-07-15T18:07:55.892Z,2.27
2018-07-15T18:10:24.973Z,2.58
2018-07-15T18:13:05.841Z,4.00
2018-07-15T18:15:51.358Z,1.90
2018-07-15T18:18:36.972Z,3.30
2018-07-15T18:21:06.808Z,1.55
2018-07-15T18:23:51.666Z,1.75
2018-07-15T18:26:40.316Z,1.32
2018-07-15T18:29:09.381Z,2.35
2018-07-15T18:31:38.616Z,2.45
2018-07-15T18:34:07.473Z,3.67
2018-07-15T18:36:36.401Z,2.37
2018-07-15T18:39:05.997Z,2.00
2018-07-15T18:41:35.152Z,2.65
2018-07-15T18:44:04.063Z,2.10
2018-07-15T18:46:32.988Z,4.95
2018-07-15T18:49:01.847Z,3.50
2018-07-15T18:51:30.717Z,2.40
2018-07-15T18:53:59.732Z,2.05
2018-07-15T18:56:28.622Z,2.75
2018-07-15T18:58:57.783Z,2.75
2018-07-15T19:01:26.945Z,2.40
2018-07-15T19:03:56.036Z,4.55
2018-07-15T19:06:25.173Z,3.47
2018-07-15T19:08:54.157Z,4.65
2018-07-15T19:11:23.181Z,2.50
2018-07-15T19:13:52.015Z,3.10
2018-07-15T19:16:20.630Z,6.12
2018-07-15T19:18:49.638Z,4.83
2018-07-15T19:21:18.734Z,4.92
2018-07-15T19:23:48.504Z,5.10
2018-07-15T19:26:17.391Z,9.05
2018-07-15T19:28:48.069Z,13.70
2018-07-15T19:31:17.426Z,5.90
2018-07-15T19:33:46.792Z,8.73
2018-07-15T19:36:16.039Z,7.45
2018-07-15T19:38:44.926Z,8.75
2018-07-15T19:41:14.038Z,4.50
2018-07-15T19:43:43.356Z,4.60
2018-07-15T19:46:13.220Z,3.92
2018-07-15T19:48:42.464Z,4.50
2018-07-15T19:51:11.640Z,4.42
2018-07-15T19:53:40.771Z,3.77
2018-07-15T19:56:10.028Z,4.25
2018-07-15T19:58:39.955Z,3.45
2018-07-15T20:01:09.738Z,4.50
2018-07-15T20:03:38.917Z,4.72
2018-07-15T20:06:08.551Z,3.83
2018-07-15T20:08:38.954Z,3.77
2018-07-15T20:11:09.577Z,4.55
2018-07-15T20:13:39.091Z,3.25
2018-07-15T20:16:09.111Z,5.22
2018-07-15T20:18:38.498Z,3.70
2018-07-15T20:21:08.037Z,4.35
2018-07-15T20:23:37.249Z,6.37
2018-07-15T20:26:06.441Z,6.75
2018-07-15T20:28:36.420Z,4.60
2018-07-15T20:31:05.494Z,5.37
2018-07-15T20:33:34.823Z,4.30
2018-07-15T20:36:04.917Z,5.05
2018-07-15T20:38:34.132Z,4.45
2018-07-15T20:41:02.996Z,3.95
2018-07-15T20:43:32.005Z,5.75
2018-07-15T20:46:00.884Z,7.37
2018-07-15T20:48:30.759Z,4.28
2018-07-15T20:50:59.906Z,3.70
2018-07-15T20:53:28.861Z,3.42
2018-07-15T20:55:58.004Z,3.98
2018-07-15T20:58:27.232Z,8.65
2018-07-15T21:00:56.527Z,4.85
2018-07-15T21:03:27.593Z,16.20
2018-07-15T21:05:58.012Z,5.60
2018-07-15T21:08:27.655Z,7.03
2018-07-15T21:10:58.144Z,5.87
2018-07-15T21:13:27.403Z,4.95
2018-07-15T21:15:56.265Z,5.85
2018-07-15T21:18:26.249Z,9.95
2018-07-15T21:20:56.115Z,4.70
2018-07-15T21:23:25.604Z,5.33
2018-07-15T21:25:54.963Z,4.50
2018-07-15T21:28:23.980Z,10.30
2018-07-15T21:30:53.035Z,9.90
2018-07-15T21:33:22.233Z,7.53
2018-07-15T21:35:51.324Z,6.70
2018-07-15T21:38:20.517Z,7.53
2018-07-15T21:40:49.720Z,4.87
2018-07-15T21:43:18.844Z,5.95
2018-07-15T21:45:48.496Z,4.97
2018-07-15T21:48:17.552Z,4.78
2018-07-15T21:50:47.418Z,5.87
2018-07-15T21:53:16.484Z,8.55
2018-07-15T21:55:45.623Z,4.85
2018-07-15T21:58:14.469Z,5.75
2018-07-15T22:00:43.360Z,4.95
2018-07-15T22:03:12.232Z,4.75
2018-07-15T22:05:41.220Z,6.00
2018-07-15T22:08:21.013Z,8.13
2018-07-15T22:10:50.235Z,5.20
2018-07-15T22:13:20.012Z,5.15
2018-07-15T22:15:49.118Z,5.10
2018-07-15T22:18:18.273Z,9.25
2018-07-15T22:20:48.017Z,7.58
2018-07-15T22:23:17.352Z,6.12
2018-07-15T22:25:46.489Z,6.72
2018-07-15T22:28:15.587Z,6.25
2018-07-15T22:30:44.652Z,6.12
2018-07-15T22:33:13.776Z,5.85
2018-07-15T22:35:42.837Z,6.40
2018-07-15T22:38:11.983Z,6.05
2018-07-15T22:40:41.264Z,5.75
2018-07-15T22:43:10.456Z,7.78
2018-07-15T22:45:39.485Z,6.55
2018-07-15T22:48:08.850Z,5.37
2018-07-15T22:50:38.627Z,6.22
2018-07-15T22:53:07.725Z,5.58
2018-07-15T22:55:36.575Z,5.03
2018-07-15T22:58:05.803Z,4.90
2018-07-15T23:00:35.545Z,5.47
2018-07-15T23:03:04.624Z,6.33
2018-07-15T23:06:15.646Z,5.92
2018-07-15T23:08:45.403Z,9.10
2018-07-15T23:11:14.369Z,6.95
2018-07-15T23:13:43.251Z,4.37
2018-07-15T23:16:12.165Z,4.67
2018-07-15T23:18:41.018Z,5.00
2018-07-15T23:21:09.965Z,5.40
2018-07-15T23:23:38.845Z,7.20
2018-07-15T23:26:08.100Z,4.62
2018-07-15T23:28:37.242Z,4.87
2018-07-15T23:31:06.328Z,6.37
2018-07-15T23:33:35.524Z,7.80
2018-07-15T23:36:04.621Z,9.58
2018-07-15T23:38:33.745Z,5.53
2018-07-15T23:41:02.901Z,6.90
2018-07-15T23:43:32.014Z,7.70
2018-07-15T23:46:01.061Z,6.25
2018-07-15T23:48:30.215Z,5.85
2018-07-15T23:50:59.252Z,6.25
2018-07-15T23:53:28.286Z,5.67
2018-07-15T23:55:57.335Z,4.87
2018-07-15T23:58:26.161Z,6.03
